• Join FlightAware (Why Join?)
  • Login
  • US Flag 
10:26AM EDT


 

Airport Tracker/Info


-or-


 

Live Flight TrackerFlight Track Log ✈ CDG4970 ✈ 03-Aug-2013 ✈ ZSWY / WUS - ZSAM / XMN

Flight Track Log - Related Links

Times and Time Zones

All times are in EDT time to prevent confusion due to time zone crossing. See the CDG4970 flight status page for this flight to view local times or setup timezone preferences in your user account.

Time Position Orientation Groundspeed Altitude Reporting Facility
EDT Latitude Longitude Course Direction KTS MPH feet Rate Location/Type
08:44PM 26.6812 118.0430 178° South  Level Estimated
08:45PM 26.5792 118.0471 178° South  Level Estimated
08:46PM 26.5073 118.0500 178° South  Level Estimated
08:47PM 26.4354 118.0529 178° South  Level Estimated
08:48PM 26.3634 118.0558 178° South  Level Estimated
08:49PM 26.2915 118.0587 178° South  Level Estimated
08:50PM 26.2196 118.0615 178° South  Level Estimated
08:51PM 26.1477 118.0644 178° South  Level Estimated
08:52PM 26.0758 118.0673 178° South  Level Estimated
08:52PM 26.0170 117.9940 178° South 397 457 22,600  Level FlightAware
08:53PM 26.0039 118.0702 178° South  Level Estimated
08:53PM 25.9370 117.9960 179° South 397 457 22,600  Level FlightAware
08:55PM 25.6930 118.0000 179° South 397 457 22,600  Level FlightAware
08:56PM 25.6210 118.0010 179° South 397 457 22,600 -360 Level FlightAware
08:57PM 25.5370 118.0040 178° South 392 451 22,100 -360 Descending FlightAware
08:57PM 25.4800 118.0060 178° South 392 451 22,100  Level FlightAware
08:58PM 25.4240 118.0080 178° South 392 451 22,100 -3,300 Level FlightAware
08:58PM 25.3380 118.0070 181° South 339 390 18,000 -3,180 Descending FlightAware
08:59PM 25.2750 118.0090 178° South 337 388 17,700 -240 Descending FlightAware
09:00PM 25.2280 118.0100 179° South 337 388 17,700  Level FlightAware
09:00PM 25.1790 118.0120 178° South 337 388 17,700  Level FlightAware
09:01PM 25.1300 118.0140 178° South 337 388 17,700  Level FlightAware
09:02PM 25.0790 118.0160 178° South 337 388 17,700  Level FlightAware
09:02PM 25.0320 118.0180 178° South 337 388 17,700  Level FlightAware
09:05PM 24.8745 118.0535 168° South  Level Estimated
09:06PM 24.8041 118.0694 168° South  Level Estimated
09:07PM 24.7335 118.0852 168° South  Level Estimated
09:08PM 24.6630 118.1011 168° South  Level Estimated
09:09PM 24.5925 118.1169 168° South  Level Estimated
09:10PM 24.5440 118.1277 168° South  Level Estimated
09:11PM 24.5440 118.1277 193° South  Level Estimated
09:12PM 24.5440 118.1277 193° South  Level Estimated
09:13PM 24.5440 118.1277 193° South  Level Estimated
09:14PM 24.5440 118.1277 193° South  Level Estimated
09:15PM 24.5440 118.1277 193° South  Level Estimated
09:16PM 24.5440 118.1277 193° South  Level Estimated
09:17PM 24.5440 118.1277 193° South  Level Estimated
09:18PM 24.5440 118.1277 193° South  Level Estimated
09:19PM 24.5440 118.1277 193° South  Level Estimated
09:20PM 24.5440 118.1277 193° South  Level Estimated
09:21PM 24.5440 118.1277 193° South  Level Estimated
09:22PM 24.5440 118.1277 193° South  Level Estimated
09:23PM 24.5440 118.1277 193° South  Level Estimated